Terminal Aerodrome Forecast
Issued by NWS

Home | Current Version | Previous Version | Text Only | Print | Product List | Glossary On
Versions: 1 2 3 4 5 6 7 8 9 10 11 12 13 14 15
000
FTUS43 KICT 080900 AAA
TAFCNU
TAF AMD
KCNU 080931Z 0810/0906 06008KT P6SM VCTS SCT030 OVC090CB
      TEMPO 0810/0812 VRB15G30KT 5SM TSRA OVC030CB
     FM081300 02013G20KT P6SM BKN150
     FM082200 35009KT P6SM BKN150
     FM090300 VRB04KT P6SM BKN150=

USA.gov is the U.S. government's official web portal to all federal, state and local government web resources and services.